createdAt,value
2023-04-02T00:01:00.939Z,100.00
2023-04-02T00:03:42.773Z,100.00
2023-04-02T00:06:30.472Z,100.00
2023-04-02T00:09:22.950Z,100.00
2023-04-02T00:11:55.996Z,100.00
2023-04-02T00:14:27.305Z,100.00
2023-04-02T00:16:57.044Z,100.00
2023-04-02T00:19:48.763Z,100.00
2023-04-02T00:22:20.087Z,100.00
2023-04-02T00:24:52.673Z,100.00
2023-04-02T00:27:21.376Z,100.00
2023-04-02T00:29:51.856Z,100.00
2023-04-02T00:32:30.100Z,100.00
2023-04-02T00:34:59.625Z,100.00
2023-04-02T00:37:38.874Z,100.00
2023-04-02T00:40:21.115Z,100.00
2023-04-02T00:42:50.450Z,100.00
2023-04-02T00:45:30.269Z,100.00
2023-04-02T00:48:01.244Z,100.00
2023-04-02T00:50:40.644Z,100.00
2023-04-02T00:53:15.878Z,100.00
2023-04-02T00:55:44.735Z,100.00
2023-04-02T00:58:32.221Z,100.00
2023-04-02T01:01:02.142Z,100.00
2023-04-02T01:03:37.139Z,100.00
2023-04-02T01:06:14.334Z,100.00
2023-04-02T01:09:10.490Z,100.00
2023-04-02T01:11:57.402Z,100.00
2023-04-02T01:14:40.477Z,100.00
2023-04-02T01:17:18.650Z,100.00
2023-04-02T01:20:11.701Z,100.00
2023-04-02T01:23:24.153Z,100.00
2023-04-02T01:26:06.691Z,100.00
2023-04-02T01:28:53.325Z,100.00
2023-04-02T01:31:21.912Z,100.00
2023-04-02T01:33:49.580Z,100.00
2023-04-02T01:36:47.165Z,100.00
2023-04-02T01:39:34.052Z,100.00
2023-04-02T01:42:18.522Z,100.00
2023-04-02T01:44:52.603Z,100.00
2023-04-02T01:47:28.933Z,100.00
2023-04-02T01:50:02.745Z,100.00
2023-04-02T01:52:43.778Z,100.00
2023-04-02T01:55:15.632Z,100.00
2023-04-02T01:57:49.540Z,100.00
2023-04-02T02:00:19.258Z,100.00
2023-04-02T02:02:52.236Z,100.00
2023-04-02T02:05:23.283Z,100.00
2023-04-02T02:07:54.685Z,100.00
2023-04-02T02:10:29.596Z,100.00
2023-04-02T02:13:00.336Z,100.00
2023-04-02T02:15:29.348Z,100.00
2023-04-02T02:18:03.240Z,100.00
2023-04-02T02:20:33.142Z,100.00
2023-04-02T02:23:03.955Z,100.00
2023-04-02T02:25:36.326Z,100.00
2023-04-02T02:28:15.758Z,100.00
2023-04-02T02:30:51.335Z,100.00
2023-04-02T02:33:33.794Z,100.00
2023-04-02T02:36:29.542Z,100.00
2023-04-02T02:39:30.680Z,100.00
2023-04-02T02:42:02.641Z,100.00
2023-04-02T02:44:36.027Z,100.00
2023-04-02T02:47:16.712Z,100.00
2023-04-02T02:49:51.880Z,100.00
2023-04-02T02:52:32.290Z,100.00
2023-04-02T02:55:20.873Z,100.00
2023-04-02T02:58:32.821Z,100.00
2023-04-02T03:01:12.088Z,100.00
2023-04-02T03:03:42.811Z,100.00
2023-04-02T03:06:16.854Z,100.00
2023-04-02T03:08:58.286Z,100.00
2023-04-02T03:11:49.469Z,100.00
2023-04-02T03:14:35.587Z,100.00
2023-04-02T03:17:12.826Z,100.00
2023-04-02T03:19:48.561Z,100.00
2023-04-02T03:22:36.058Z,100.00
2023-04-02T03:25:18.208Z,100.00
2023-04-02T03:27:49.959Z,100.00
2023-04-02T03:30:43.593Z,100.00
2023-04-02T03:33:35.114Z,100.00
2023-04-02T03:36:25.807Z,100.00
2023-04-02T03:38:58.000Z,100.00
2023-04-02T03:42:09.856Z,100.00
2023-04-02T03:44:50.508Z,100.00
2023-04-02T03:47:32.205Z,100.00
2023-04-02T03:50:28.976Z,100.00
2023-04-02T03:53:01.614Z,100.00
2023-04-02T03:55:33.898Z,100.00
2023-04-02T03:58:41.210Z,100.00
2023-04-02T04:01:24.360Z,100.00
2023-04-02T04:04:02.208Z,100.00
2023-04-02T04:06:33.193Z,100.00
2023-04-02T04:09:19.411Z,100.00
2023-04-02T04:11:52.724Z,100.00
2023-04-02T04:14:34.023Z,100.00
2023-04-02T04:17:13.941Z,100.00
2023-04-02T04:19:58.595Z,100.00
2023-04-02T04:22:33.281Z,100.00
2023-04-02T04:25:29.904Z,100.00
2023-04-02T04:28:27.270Z,100.00
2023-04-02T04:31:09.597Z,100.00
2023-04-02T04:33:46.344Z,100.00
2023-04-02T04:36:28.749Z,100.00
2023-04-02T04:39:14.686Z,100.00
2023-04-02T04:41:49.262Z,100.00
2023-04-02T04:44:24.309Z,100.00
2023-04-02T04:47:02.576Z,100.00
2023-04-02T04:49:45.148Z,100.00
2023-04-02T04:52:21.112Z,100.00
2023-04-02T04:54:49.293Z,100.00
2023-04-02T04:57:38.544Z,100.00
2023-04-02T05:00:29.004Z,100.00
2023-04-02T05:03:17.381Z,100.00
2023-04-02T05:05:46.437Z,100.00
2023-04-02T05:08:23.215Z,100.00
2023-04-02T05:11:01.541Z,100.00
2023-04-02T05:13:37.725Z,100.00
2023-04-02T05:16:20.753Z,100.00
2023-04-02T05:19:08.983Z,100.00
2023-04-02T05:21:37.317Z,100.00
2023-04-02T05:24:42.363Z,100.00
2023-04-02T05:27:18.778Z,100.00
2023-04-02T05:30:01.147Z,100.00
2023-04-02T05:32:34.864Z,100.00
2023-04-02T05:35:06.668Z,100.00
2023-04-02T05:37:39.567Z,100.00
2023-04-02T05:40:21.283Z,100.00
2023-04-02T05:42:53.254Z,100.00
2023-04-02T05:45:21.792Z,100.00
2023-04-02T05:47:53.034Z,100.00
2023-04-02T05:50:30.799Z,100.00
2023-04-02T05:53:08.896Z,100.00
2023-04-02T05:55:48.960Z,100.00
2023-04-02T05:58:35.256Z,100.00
2023-04-02T06:01:42.202Z,100.00
2023-04-02T06:04:30.105Z,100.00
2023-04-02T06:07:10.163Z,100.00
2023-04-02T06:10:03.474Z,100.00
2023-04-02T06:12:55.551Z,100.00
2023-04-02T06:15:24.332Z,100.00
2023-04-02T06:18:01.872Z,100.00
2023-04-02T06:20:30.843Z,100.00
2023-04-02T06:23:19.935Z,100.00
2023-04-02T06:25:58.919Z,100.00
2023-04-02T06:28:33.349Z,100.00
2023-04-02T06:31:08.264Z,100.00
2023-04-02T06:33:37.944Z,100.00
2023-04-02T06:36:08.547Z,100.00
2023-04-02T06:38:38.111Z,100.00
2023-04-02T06:41:20.660Z,100.00
2023-04-02T06:44:21.620Z,100.00
2023-04-02T06:47:22.312Z,100.00
2023-04-02T06:50:33.597Z,100.00
2023-04-02T06:53:06.499Z,100.00
2023-04-02T06:56:08.956Z,100.00
2023-04-02T06:58:36.678Z,100.00
2023-04-02T07:01:04.866Z,100.00
2023-04-02T07:03:41.932Z,100.00
2023-04-02T07:06:28.365Z,100.00
2023-04-02T07:08:59.620Z,100.00
2023-04-02T07:11:28.140Z,100.00
2023-04-02T07:13:59.187Z,100.00
2023-04-02T07:16:29.595Z,100.00
2023-04-02T07:19:00.841Z,100.00
2023-04-02T07:21:32.252Z,100.00
2023-04-02T07:24:00.432Z,100.00
2023-04-02T07:26:28.478Z,100.00
2023-04-02T07:28:56.954Z,100.00
2023-04-02T07:31:28.032Z,100.00
2023-04-02T07:34:00.004Z,100.00
2023-04-02T07:36:30.762Z,100.00
2023-04-02T07:38:59.646Z,100.00
2023-04-02T07:41:27.754Z,100.00
2023-04-02T07:43:55.460Z,100.00
2023-04-02T07:46:23.230Z,100.00
2023-04-02T07:48:51.095Z,100.00
2023-04-02T07:51:20.332Z,100.00
2023-04-02T07:53:56.347Z,100.00
2023-04-02T07:56:25.592Z,100.00
2023-04-02T07:58:53.252Z,100.00
2023-04-02T08:01:24.500Z,100.00
2023-04-02T08:03:58.022Z,100.00
2023-04-02T08:06:26.243Z,100.00
2023-04-02T08:08:54.630Z,100.00
2023-04-02T08:11:22.314Z,100.00
2023-04-02T08:13:50.829Z,100.00
2023-04-02T08:16:19.084Z,100.00
2023-04-02T08:18:47.942Z,100.00
2023-04-02T08:21:16.668Z,100.00
2023-04-02T08:23:45.030Z,100.00
2023-04-02T08:26:18.980Z,100.00
2023-04-02T08:28:46.767Z,100.00
2023-04-02T08:31:14.570Z,100.00
2023-04-02T08:33:42.358Z,100.00
2023-04-02T08:36:16.935Z,100.00
2023-04-02T08:38:45.564Z,100.00
2023-04-02T08:41:38.959Z,100.00
2023-04-02T08:44:23.463Z,100.00
2023-04-02T08:47:04.880Z,100.00
2023-04-02T08:49:54.874Z,100.00
2023-04-02T08:52:24.337Z,100.00
2023-04-02T08:54:53.569Z,100.00
2023-04-02T08:57:30.637Z,100.00
2023-04-02T09:00:22.062Z,100.00
2023-04-02T09:02:58.024Z,100.00
2023-04-02T09:05:31.396Z,100.00
2023-04-02T09:08:05.283Z,100.00
2023-04-02T09:10:39.305Z,100.00
2023-04-02T09:13:20.692Z,100.00
2023-04-02T09:15:50.678Z,100.00
2023-04-02T09:18:20.093Z,100.00
2023-04-02T09:20:49.503Z,100.00
2023-04-02T09:23:23.226Z,100.00
2023-04-02T09:26:03.616Z,100.00
2023-04-02T09:28:32.367Z,100.00
2023-04-02T09:31:18.243Z,100.00
2023-04-02T09:33:49.462Z,100.00
2023-04-02T09:36:32.846Z,100.00
2023-04-02T09:39:07.145Z,100.00
2023-04-02T09:41:37.230Z,98.01
2023-04-02T09:44:21.347Z,97.87
2023-04-02T09:46:53.158Z,93.94
2023-04-02T09:49:25.669Z,88.51
2023-04-02T09:52:11.989Z,89.11
2023-04-02T09:54:41.707Z,88.22
2023-04-02T09:57:25.380Z,95.85
2023-04-02T10:00:39.650Z,95.25
2023-04-02T10:03:33.083Z,93.99
2023-04-02T10:06:11.087Z,92.52
2023-04-02T10:08:42.418Z,95.72
2023-04-02T10:11:43.708Z,94.23
2023-04-02T10:14:23.142Z,91.92
2023-04-02T10:16:55.510Z,86.37
2023-04-02T10:19:26.717Z,86.00
2023-04-02T10:21:57.189Z,83.92
2023-04-02T10:24:29.310Z,72.85
2023-04-02T10:27:29.681Z,64.87
2023-04-02T10:30:20.469Z,58.71
2023-04-02T10:33:00.957Z,51.02
2023-04-02T10:35:43.491Z,48.59
2023-04-02T10:38:52.921Z,50.54
2023-04-02T10:41:49.311Z,53.38
2023-04-02T10:44:32.326Z,56.84
2023-04-02T10:47:33.104Z,58.19
2023-04-02T10:50:38.494Z,59.99
2023-04-02T10:53:16.821Z,59.96
2023-04-02T10:55:49.265Z,59.03
2023-04-02T10:58:50.678Z,48.23
2023-04-02T11:01:24.068Z,46.02
2023-04-02T11:04:00.207Z,45.22
2023-04-02T11:06:44.258Z,42.35
2023-04-02T11:09:26.787Z,39.59
2023-04-02T11:11:58.020Z,39.78
2023-04-02T11:14:31.531Z,40.75
2023-04-02T11:17:00.792Z,45.60
2023-04-02T11:19:28.316Z,46.15
2023-04-02T11:21:59.593Z,42.74
2023-04-02T11:24:37.372Z,38.10
2023-04-02T11:27:06.685Z,38.09
2023-04-02T11:29:34.882Z,40.70
2023-04-02T11:32:21.556Z,41.58
2023-04-02T11:34:59.511Z,42.30
2023-04-02T11:37:36.195Z,42.11
2023-04-02T11:40:07.204Z,44.11
2023-04-02T11:42:35.501Z,44.07
2023-04-02T11:45:24.638Z,45.01
2023-04-02T11:48:02.093Z,39.44
2023-04-02T11:50:41.004Z,41.83
2023-04-02T11:53:12.213Z,49.86
2023-04-02T11:55:40.132Z,57.44
2023-04-02T11:58:32.246Z,63.68
2023-04-02T12:00:59.692Z,67.57
2023-04-02T12:03:46.910Z,67.37
2023-04-02T12:06:18.846Z,70.47
2023-04-02T12:08:59.114Z,70.73
2023-04-02T12:11:44.819Z,73.57
2023-04-02T12:14:35.231Z,74.98
2023-04-02T12:17:06.282Z,87.10
2023-04-02T12:19:35.785Z,86.85
2023-04-02T12:22:03.849Z,85.09
2023-04-02T12:24:31.794Z,82.61
2023-04-02T12:27:17.976Z,78.38
2023-04-02T12:29:45.528Z,77.61
2023-04-02T12:32:29.549Z,78.61
2023-04-02T12:35:04.742Z,83.37
2023-04-02T12:37:32.835Z,78.94
2023-04-02T12:40:02.511Z,80.21
2023-04-02T12:42:35.148Z,68.73
2023-04-02T12:45:03.904Z,64.16
2023-04-02T12:47:32.144Z,55.34
2023-04-02T12:50:00.851Z,50.16
2023-04-02T12:52:29.141Z,48.81
2023-04-02T12:55:03.152Z,46.18
2023-04-02T12:57:33.663Z,41.53
2023-04-02T13:00:06.500Z,38.31
2023-04-02T13:02:45.039Z,35.95
2023-04-02T13:05:13.457Z,33.17
2023-04-02T13:07:47.357Z,32.68
2023-04-02T13:10:25.798Z,31.47
2023-04-02T13:13:01.730Z,29.93
2023-04-02T13:15:32.139Z,28.16
2023-04-02T13:18:19.230Z,27.92
2023-04-02T13:21:00.521Z,26.25
2023-04-02T13:23:29.680Z,25.76
2023-04-02T13:25:59.850Z,23.92
2023-04-02T13:28:28.457Z,23.63
2023-04-02T13:30:56.474Z,21.16
2023-04-02T13:33:24.486Z,20.64
2023-04-02T13:35:51.938Z,20.10
2023-04-02T13:38:19.772Z,18.97
2023-04-02T13:40:47.124Z,18.59
2023-04-02T13:43:17.349Z,18.63
2023-04-02T13:45:49.034Z,19.08
2023-04-02T13:48:18.326Z,20.13
2023-04-02T13:50:46.779Z,19.10
2023-04-02T13:53:31.139Z,19.79
2023-04-02T13:55:58.858Z,20.29
2023-04-02T13:58:27.210Z,19.47
2023-04-02T14:00:55.230Z,18.40
2023-04-02T14:03:23.672Z,18.86
2023-04-02T14:06:03.256Z,17.70
2023-04-02T14:08:36.776Z,17.44
2023-04-02T14:11:21.862Z,16.01
2023-04-02T14:13:52.387Z,14.91
2023-04-02T14:16:31.853Z,13.71
2023-04-02T14:19:00.334Z,13.70
2023-04-02T14:22:06.362Z,14.30
2023-04-02T14:24:49.362Z,14.44
2023-04-02T14:27:16.695Z,16.02
2023-04-02T14:29:51.175Z,16.56
2023-04-02T14:32:29.437Z,18.16
2023-04-02T14:35:16.364Z,17.00
2023-04-02T14:38:02.145Z,16.76
2023-04-02T14:40:52.100Z,15.27
2023-04-02T14:43:36.920Z,16.85
2023-04-02T14:46:10.294Z,17.81
2023-04-02T14:48:41.071Z,17.09
2023-04-02T14:51:16.122Z,17.87
2023-04-02T14:53:55.841Z,21.40
2023-04-02T14:56:24.534Z,23.08
2023-04-02T14:59:05.732Z,25.19
2023-04-02T15:01:40.527Z,27.25
2023-04-02T15:04:14.444Z,27.29
2023-04-02T15:06:44.978Z,27.61
2023-04-02T15:09:31.502Z,27.92
2023-04-02T15:12:07.333Z,28.20
2023-04-02T15:14:38.225Z,29.09
2023-04-02T15:17:07.360Z,30.36
2023-04-02T15:19:34.857Z,29.85
2023-04-02T15:22:21.581Z,27.69
2023-04-02T15:25:08.111Z,28.34
2023-04-02T15:27:52.144Z,29.03
2023-04-02T15:30:19.997Z,29.77
2023-04-02T15:32:49.078Z,29.55
2023-04-02T15:35:38.714Z,30.14
2023-04-02T15:38:12.377Z,30.76
2023-04-02T15:40:50.562Z,30.74
2023-04-02T15:43:21.412Z,31.65
2023-04-02T15:46:08.056Z,31.76
2023-04-02T15:48:39.460Z,32.12
2023-04-02T15:51:42.422Z,32.22
2023-04-02T15:54:16.012Z,32.68
2023-04-02T15:56:59.070Z,33.04
2023-04-02T15:59:41.010Z,33.46
2023-04-02T16:02:32.111Z,31.81
2023-04-02T16:05:26.237Z,33.49
2023-04-02T16:07:57.538Z,34.01
2023-04-02T16:10:41.121Z,34.78
2023-04-02T16:13:26.154Z,33.74
2023-04-02T16:16:06.258Z,34.53
2023-04-02T16:18:53.636Z,34.70
2023-04-02T16:21:28.302Z,35.64
2023-04-02T16:23:56.143Z,36.32
2023-04-02T16:26:24.088Z,36.43
2023-04-02T16:28:51.941Z,36.71
2023-04-02T16:31:22.352Z,37.00
2023-04-02T16:33:53.313Z,37.03
2023-04-02T16:36:23.897Z,36.70
2023-04-02T16:38:57.931Z,37.28
2023-04-02T16:41:52.156Z,38.01
2023-04-02T16:44:35.914Z,38.36
2023-04-02T16:47:12.178Z,39.38
2023-04-02T16:49:49.806Z,40.19
2023-04-02T16:52:26.350Z,40.33
2023-04-02T16:55:11.561Z,40.69
2023-04-02T16:57:58.184Z,41.09
2023-04-02T17:00:48.447Z,41.27
2023-04-02T17:03:38.783Z,42.17
2023-04-02T17:06:08.639Z,41.98
2023-04-02T17:08:41.910Z,40.03
2023-04-02T17:11:13.099Z,41.66
2023-04-02T17:13:50.543Z,40.36
2023-04-02T17:16:22.111Z,40.41
2023-04-02T17:18:53.231Z,40.92
2023-04-02T17:21:24.236Z,41.45
2023-04-02T17:23:56.867Z,41.13
2023-04-02T17:26:30.562Z,42.06
2023-04-02T17:29:00.956Z,42.02
2023-04-02T17:31:34.073Z,41.89
2023-04-02T17:34:09.958Z,41.17
2023-04-02T17:36:56.273Z,43.21
2023-04-02T17:39:39.314Z,43.76
2023-04-02T17:42:09.788Z,44.45
2023-04-02T17:44:37.172Z,45.65
2023-04-02T17:47:05.783Z,46.87
2023-04-02T17:49:49.232Z,46.39
2023-04-02T17:52:38.326Z,46.74
2023-04-02T17:55:11.785Z,44.73
2023-04-02T17:57:45.940Z,46.38
2023-04-02T18:00:22.588Z,47.52
2023-04-02T18:03:01.212Z,49.73
2023-04-02T18:05:43.093Z,55.16
2023-04-02T18:08:31.390Z,56.65
2023-04-02T18:11:19.845Z,60.53
2023-04-02T18:14:00.691Z,63.99
2023-04-02T18:16:34.633Z,67.65
2023-04-02T18:19:14.978Z,70.62
2023-04-02T18:21:47.086Z,72.83
2023-04-02T18:24:17.761Z,74.64
2023-04-02T18:26:54.068Z,75.65
2023-04-02T18:29:25.119Z,76.20
2023-04-02T18:32:05.185Z,77.68
2023-04-02T18:34:33.179Z,78.32
2023-04-02T18:37:10.043Z,80.36
2023-04-02T18:40:10.416Z,81.26
2023-04-02T18:42:38.238Z,81.94
2023-04-02T18:45:18.933Z,84.16
2023-04-02T18:47:53.053Z,85.82
2023-04-02T18:50:32.683Z,85.93
2023-04-02T18:53:08.719Z,84.95
2023-04-02T18:55:37.017Z,84.66
2023-04-02T18:58:09.897Z,86.02
2023-04-02T19:00:42.079Z,85.70
2023-04-02T19:03:10.522Z,85.86
2023-04-02T19:05:41.865Z,85.87
2023-04-02T19:08:32.510Z,84.18
2023-04-02T19:11:13.376Z,87.06
2023-04-02T19:13:41.136Z,86.17
2023-04-02T19:16:28.768Z,85.61
2023-04-02T19:18:56.785Z,85.45
2023-04-02T19:21:34.307Z,86.15
2023-04-02T19:24:04.767Z,86.57
2023-04-02T19:26:45.519Z,86.22
2023-04-02T19:29:16.078Z,86.33
2023-04-02T19:32:02.321Z,86.23
2023-04-02T19:34:47.404Z,86.68
2023-04-02T19:37:35.663Z,86.96
2023-04-02T19:40:04.789Z,86.12
2023-04-02T19:42:32.757Z,86.16
2023-04-02T19:45:00.788Z,86.02
2023-04-02T19:47:28.205Z,85.40
2023-04-02T19:49:56.532Z,86.75
2023-04-02T19:52:24.518Z,85.66
2023-04-02T19:54:52.390Z,83.97
2023-04-02T19:57:20.643Z,82.22
2023-04-02T19:59:48.432Z,86.55
2023-04-02T20:02:15.819Z,87.69
2023-04-02T20:04:43.391Z,86.32
2023-04-02T20:07:11.140Z,83.80
2023-04-02T20:09:38.523Z,79.25
2023-04-02T20:12:07.118Z,83.04
2023-04-02T20:14:34.524Z,83.03
2023-04-02T20:17:02.009Z,82.88
2023-04-02T20:19:30.141Z,85.71
2023-04-02T20:21:57.854Z,86.63
2023-04-02T20:24:25.757Z,92.40
2023-04-02T20:26:53.205Z,93.87
2023-04-02T20:29:22.978Z,94.13
2023-04-02T20:31:51.332Z,89.60
2023-04-02T20:34:18.910Z,90.06
2023-04-02T20:36:47.646Z,93.84
2023-04-02T20:39:19.532Z,90.13
2023-04-02T20:41:48.027Z,91.19
2023-04-02T20:44:15.936Z,93.13
2023-04-02T20:46:43.931Z,89.91
2023-04-02T20:49:12.136Z,87.10
2023-04-02T20:51:39.979Z,85.66
2023-04-02T20:54:07.341Z,83.47
2023-04-02T20:56:35.299Z,81.64
2023-04-02T20:59:03.849Z,80.50
2023-04-02T21:01:31.839Z,79.50
2023-04-02T21:04:00.469Z,79.03
2023-04-02T21:06:29.856Z,81.75
2023-04-02T21:08:57.945Z,82.79
2023-04-02T21:11:26.317Z,79.44
2023-04-02T21:13:54.397Z,78.92
2023-04-02T21:16:23.311Z,77.65
2023-04-02T21:18:52.402Z,80.33
2023-04-02T21:21:20.474Z,79.27
2023-04-02T21:23:53.888Z,76.87
2023-04-02T21:26:21.887Z,72.28
2023-04-02T21:28:50.018Z,69.24
2023-04-02T21:31:19.479Z,71.31
2023-04-02T21:33:48.084Z,73.26
2023-04-02T21:36:17.649Z,77.64
2023-04-02T21:38:46.768Z,73.24
2023-04-02T21:41:16.317Z,71.75
2023-04-02T21:43:44.492Z,70.72
2023-04-02T21:46:12.388Z,73.54
2023-04-02T21:48:41.876Z,76.30
2023-04-02T21:51:11.738Z,78.47
2023-04-02T21:53:39.964Z,75.91
2023-04-02T21:56:12.695Z,71.67
2023-04-02T21:58:41.770Z,75.27
2023-04-02T22:01:16.863Z,75.90
2023-04-02T22:03:48.407Z,71.37
2023-04-02T22:06:20.280Z,71.62
2023-04-02T22:08:52.398Z,71.92
2023-04-02T22:11:21.400Z,68.29
2023-04-02T22:13:49.309Z,65.21
2023-04-02T22:16:18.255Z,68.70
2023-04-02T22:18:46.237Z,67.21
2023-04-02T22:21:14.738Z,70.84
2023-04-02T22:23:42.986Z,69.37
2023-04-02T22:26:11.672Z,71.29
2023-04-02T22:28:40.517Z,74.68
2023-04-02T22:31:09.797Z,75.80
2023-04-02T22:33:37.834Z,77.93
2023-04-02T22:36:05.482Z,82.15
2023-04-02T22:38:33.940Z,82.96
2023-04-02T22:41:12.918Z,85.84
2023-04-02T22:43:41.684Z,86.83
2023-04-02T22:46:10.809Z,90.94
2023-04-02T22:48:41.234Z,82.92
2023-04-02T22:51:10.512Z,87.08
2023-04-02T22:53:38.619Z,90.75
2023-04-02T22:56:07.237Z,87.33
2023-04-02T22:58:35.773Z,88.12
2023-04-02T23:01:06.948Z,88.47
2023-04-02T23:03:35.009Z,91.64
2023-04-02T23:06:04.138Z,91.23
2023-04-02T23:08:32.025Z,91.38
2023-04-02T23:11:00.435Z,93.75
2023-04-02T23:13:28.125Z,92.96
2023-04-02T23:15:55.630Z,94.58
2023-04-02T23:18:23.143Z,95.63
2023-04-02T23:20:51.458Z,97.49
2023-04-02T23:23:19.353Z,95.54
2023-04-02T23:25:47.144Z,99.36
2023-04-02T23:28:14.492Z,96.19
2023-04-02T23:30:43.637Z,97.00
2023-04-02T23:33:12.022Z,98.99
2023-04-02T23:35:39.525Z,99.82
2023-04-02T23:38:07.877Z,100.00
2023-04-02T23:40:35.414Z,100.00
2023-04-02T23:43:02.878Z,100.00
2023-04-02T23:45:30.966Z,100.00
2023-04-02T23:47:58.981Z,100.00
2023-04-02T23:50:26.827Z,100.00
2023-04-02T23:52:54.820Z,100.00
2023-04-02T23:55:22.204Z,100.00
2023-04-02T23:57:50.019Z,100.00
